Time;durP1;ratioP1;P1;durP2;ratioP2;P2;SDS_P1;SDS_P2;PMS_P1;PMS_P2;Temp;Humidity;BMP_temperature;BMP_pressure;BME280_temperature;BME280_humidity;BME280_pressure;Samples;Min_cycle;Max_cycle;Signal;HPM_P1;HPM_P2
2022/03/12 00:01:06;;;;;;;16.93;10.47;;;6.80;35.50;;;7.23;33.17;97701.03;6254128;23;20018;-38
2022/03/12 00:03:35;;;;;;;16.27;10.63;;;6.80;35.70;;;7.19;33.15;97704.94;6228820;23;20310;-38
2022/03/12 00:06:03;;;;;;;18.00;11.60;;;6.70;35.90;;;7.18;33.17;97711.22;6253799;23;20019;-39
2022/03/12 00:08:43;;;;;;;15.60;9.90;;;6.70;35.90;;;7.14;33.22;97717.75;6254967;23;20236;-38
2022/03/12 00:11:17;;;;;;;13.67;9.57;;;6.60;36.10;;;7.12;33.07;97710.94;6253192;23;20226;-38
2022/03/12 00:13:47;;;;;;;17.43;10.50;;;6.60;36.10;;;7.08;33.33;97716.50;6264981;23;20012;-38
2022/03/12 00:16:22;;;;;;;17.60;11.77;;;6.50;36.20;;;7.04;33.68;97712.44;6254533;23;20018;-38
2022/03/12 00:18:58;;;;;;;16.87;10.83;;;6.60;36.50;;;7.01;33.68;97720.66;6254660;23;20357;-38
2022/03/12 00:21:39;;;;;;;16.00;9.20;;;6.50;36.50;;;7.01;33.46;97717.19;6264046;23;20012;-39
2022/03/12 00:24:09;;;;;;;;;;;6.50;36.40;;;6.97;33.43;97726.38;6265038;23;20016;-38
2022/03/12 00:26:41;;;;;;;14.83;10.93;;;6.50;37.60;;;6.98;33.59;97718.28;6254593;23;19918;-38
2022/03/12 00:29:14;;;;;;;20.60;10.37;;;6.40;36.50;;;6.96;33.64;97717.59;6203632;23;20020;-38
2022/03/12 00:31:48;;;;;;;14.47;9.57;;;6.40;36.50;;;6.94;34.18;97722.19;6238369;23;20022;-38
2022/03/12 00:34:17;;;;;;;16.63;9.57;;;6.40;36.50;;;6.93;33.86;97715.22;6254643;23;20012;-38
2022/03/12 00:36:48;;;;;;;18.00;10.73;;;6.40;36.40;;;6.92;34.02;97710.91;6264549;23;20012;-38
2022/03/12 00:39:16;;;;;;;15.27;10.30;;;6.50;36.30;;;6.94;33.76;97708.09;6253688;23;20015;-38
2022/03/12 00:41:45;;;;;;;14.87;10.20;;;6.50;36.20;;;6.93;33.71;97709.09;6254126;23;20012;-38
2022/03/12 00:44:17;;;;;;;13.00;9.53;;;6.60;35.90;;;6.96;34.23;97714.09;6254884;23;20365;-38
2022/03/12 00:46:46;;;;;;;15.10;9.70;;;6.70;36.00;;;6.99;34.21;97712.00;6264673;23;20016;-38
2022/03/12 00:49:14;;;;;;;17.40;11.17;;;6.70;36.20;;;7.03;34.16;97721.34;6254782;23;20127;-38
2022/03/12 00:51:44;;;;;;;17.93;9.90;;;6.70;36.40;;;7.05;34.22;97718.56;6253832;23;20064;-38
2022/03/12 00:54:12;;;;;;;13.97;9.27;;;6.70;36.10;;;7.04;33.98;97712.44;6254104;23;20022;-38
2022/03/12 00:56:40;;;;;;;17.53;9.80;;;6.60;36.40;;;7.04;34.14;97716.91;6254417;23;20027;-38
2022/03/12 00:59:08;;;;;;;18.97;11.70;;;6.60;36.50;;;6.99;34.64;97716.47;6254627;23;20019;-38
2022/03/12 01:01:36;;;;;;;16.30;9.60;;;6.60;36.60;;;6.99;34.76;97712.00;6253696;23;20205;-38
2022/03/12 01:04:06;;;;;;;13.93;9.80;;;6.60;36.80;;;7.01;33.73;97714.53;6254639;23;20022;-38
2022/03/12 01:06:37;;;;;;;19.97;10.93;;;6.60;36.70;;;6.99;34.22;97714.66;6252856;23;20388;-38
2022/03/12 01:09:05;;;;;;;14.17;9.27;;;6.60;36.80;;;6.98;34.75;97713.00;6264670;23;20023;-38
2022/03/12 01:11:34;;;;;;;13.37;9.40;;;6.50;36.90;;;6.97;35.01;97715.78;6253955;23;20016;-38
2022/03/12 01:14:02;;;;;;;18.40;11.80;;;6.50;37.00;;;6.94;34.02;97716.03;6253502;23;20022;-38
2022/03/12 01:16:30;;;;;;;21.60;11.10;;;6.40;37.30;;;6.91;34.14;97717.16;6252895;23;20258;-38
2022/03/12 01:18:58;;;;;;;18.87;10.77;;;6.40;37.30;;;6.89;34.80;97719.09;6254207;23;20018;-38
2022/03/12 01:21:29;;;;;;;14.80;9.30;;;6.40;37.50;;;6.86;34.45;97709.63;6253840;23;20012;-38
2022/03/12 01:23:57;;;;;;;16.70;9.47;;;6.30;37.70;;;6.83;34.41;97719.66;6252803;23;20213;-38
2022/03/12 01:26:25;;;;;;;13.20;10.00;;;6.30;37.70;;;6.79;34.87;97716.44;6254591;23;20022;-38
2022/03/12 01:28:54;;;;;;;13.17;9.73;;;6.30;37.80;;;6.78;34.61;97711.28;6254042;23;20026;-38
2022/03/12 01:31:22;;;;;;;14.13;8.93;;;6.30;37.90;;;6.76;35.30;97719.34;6252722;23;20028;-38
2022/03/12 01:33:50;;;;;;;12.97;9.00;;;6.30;38.00;;;6.76;35.22;97719.34;6254838;23;20012;-38
2022/03/12 01:36:19;;;;;;;12.73;8.97;;;6.30;38.00;;;6.76;35.29;97721.16;6256478;23;20063;-38
2022/03/12 01:38:52;;;;;;;18.13;10.07;;;6.30;38.10;;;6.76;35.13;97718.50;6227732;23;20026;-38
2022/03/12 01:41:29;;;;;;;15.70;9.20;;;6.30;38.30;;;6.74;35.14;97717.81;6229712;23;20026;-38
2022/03/12 01:44:00;;;;;;;13.80;9.10;;;6.30;38.20;;;6.73;34.91;97724.94;6266176;23;20015;-38
2022/03/12 01:46:40;;;;;;;13.40;9.43;;;6.30;38.10;;;6.71;35.13;97716.28;6254371;23;20067;-38
2022/03/12 01:49:18;;;;;;;17.70;10.67;;;6.30;38.30;;;6.70;35.01;97715.44;6265960;23;20071;-38
2022/03/12 01:51:50;;;;;;;13.27;9.20;;;6.30;39.10;;;6.72;34.84;97725.06;6255638;23;20035;-39
2022/03/12 01:54:28;;;;;;;14.30;10.47;;;6.20;38.10;;;6.73;35.15;97717.00;6265834;23;20012;-38
2022/03/12 01:56:58;;;;;;;14.30;9.03;;;6.30;38.50;;;6.72;35.23;97710.00;6266189;23;20075;-38
2022/03/12 01:59:26;;;;;;;13.37;9.63;;;6.30;38.20;;;6.72;34.82;97711.81;6256080;23;20227;-38
2022/03/12 02:01:57;;;;;;;13.17;8.73;;;6.30;38.10;;;6.70;35.33;97709.31;6255663;23;20214;-38
2022/03/12 02:04:29;;;;;;;16.83;10.10;;;6.20;38.40;;;6.71;35.30;97708.34;6255569;23;20258;-38
2022/03/12 02:06:59;;;;;;;15.70;10.13;;;6.20;38.20;;;6.66;34.95;97714.03;6255179;23;20020;-39
2022/03/12 02:09:27;;;;;;;14.57;9.43;;;6.20;38.30;;;6.66;35.63;97708.72;6229311;23;20026;-38
2022/03/12 02:11:55;;;;;;;16.07;9.37;;;6.20;38.20;;;6.67;35.08;97713.06;6255661;23;20069;-38
2022/03/12 02:14:27;;;;;;;13.90;7.53;;;6.20;38.20;;;6.70;35.09;97726.00;6229092;23;20016;-38
2022/03/12 02:17:12;;;;;;;14.07;9.27;;;6.30;38.50;;;6.72;35.76;97725.06;6255387;23;20024;-38
2022/03/12 02:19:41;;;;;;;15.20;8.90;;;6.30;38.70;;;6.72;35.97;97725.06;6255405;23;20016;-38
2022/03/12 02:22:15;;;;;;;16.03;8.80;;;6.30;38.60;;;6.69;35.74;97721.72;6254174;23;20016;-38
2022/03/12 02:24:43;;;;;;;15.80;9.83;;;6.30;38.50;;;6.66;35.30;97721.97;6255366;23;20075;-38
2022/03/12 02:27:12;;;;;;;13.33;9.47;;;6.20;38.20;;;6.70;35.74;97733.94;6255744;23;20024;-38
2022/03/12 02:29:41;;;;;;;16.97;9.77;;;6.20;38.20;;;6.69;35.49;97737.59;6255848;23;20022;-38
2022/03/12 02:32:11;;;;;;;15.03;8.90;;;6.30;38.10;;;6.71;35.39;97732.16;6255176;23;20016;-38
2022/03/12 02:34:47;;;;;;;13.77;8.77;;;6.30;38.40;;;6.70;35.27;97730.47;6255477;23;20012;-38
2022/03/12 02:37:30;;;;;;;15.97;10.30;;;6.30;38.70;;;6.69;35.85;97731.47;6266073;23;20012;-38
2022/03/12 02:40:01;;;;;;;14.60;10.13;;;6.20;38.60;;;6.66;35.31;97739.66;6231024;23;20027;-38
2022/03/12 02:42:29;;;;;;;16.17;10.53;;;6.20;38.80;;;6.63;35.55;97738.13;6255105;23;20022;-38
2022/03/12 02:44:59;;;;;;;16.17;10.37;;;6.10;38.90;;;6.57;36.07;97738.66;6254507;23;20019;-38
2022/03/12 02:47:31;;;;;;;15.93;9.97;;;6.00;39.00;;;6.53;35.93;97729.28;6256086;23;20016;-38
2022/03/12 02:50:09;;;;;;;19.20;10.00;;;6.00;39.40;;;6.49;35.94;97730.53;6255252;23;20019;-38
2022/03/12 02:52:41;;;;;;;14.17;9.37;;;6.00;39.10;;;6.47;35.97;97728.00;6264874;23;20016;-38
2022/03/12 02:55:13;;;;;;;13.57;8.93;;;6.00;39.10;;;6.41;36.56;97725.09;6228492;23;20314;-38
2022/03/12 02:57:46;;;;;;;14.80;9.33;;;6.00;38.50;;;6.43;35.65;97728.44;6254592;23;20022;-38
2022/03/12 03:00:16;;;;;;;16.07;8.77;;;6.10;38.60;;;6.45;35.79;97727.31;6255664;23;20022;-38
2022/03/12 03:02:48;;;;;;;14.83;8.37;;;6.00;38.80;;;6.44;36.00;97725.66;6255035;23;20369;-38
2022/03/12 03:08:07;;;;;;;12.27;8.00;;;6.20;38.60;;;6.50;35.63;97733.06;6253877;23;20075;-38
2022/03/12 03:10:41;;;;;;;15.80;9.57;;;6.20;38.60;;;6.49;35.83;97741.97;6254186;23;20079;-38
2022/03/12 03:13:18;;;;;;;12.53;8.23;;;6.10;38.90;;;6.50;35.54;97737.50;6228608;23;20026;-38
2022/03/12 03:16:00;;;;;;;11.90;9.23;;;6.10;39.00;;;6.50;35.95;97741.00;6254012;23;20016;-38
2022/03/12 03:18:33;;;;;;;14.07;8.63;;;6.00;38.80;;;6.49;35.46;97741.13;6254841;23;20024;-38
2022/03/12 03:21:03;;;;;;;13.93;8.27;;;6.00;38.80;;;6.45;35.75;97745.81;6264754;23;20107;-38
2022/03/12 03:23:33;;;;;;;13.73;8.13;;;6.00;39.00;;;6.45;35.67;97745.00;6265461;23;20035;-39
2022/03/12 03:26:02;;;;;;;14.27;9.30;;;6.00;39.20;;;6.44;36.28;97746.81;6254848;23;20016;-38
2022/03/12 03:28:30;;;;;;;14.23;8.30;;;6.00;39.30;;;6.44;36.71;97757.41;6229322;23;20022;-38
2022/03/12 03:30:58;;;;;;;10.57;7.97;;;6.00;39.20;;;6.46;36.64;97763.38;6228284;23;20016;-38
2022/03/12 03:33:27;;;;;;;15.70;9.03;;;6.00;39.10;;;6.46;35.82;97759.91;6255265;23;20022;-38
2022/03/12 03:35:55;;;;;;;15.23;8.57;;;6.00;39.20;;;6.46;35.99;97762.56;6254920;23;20016;-38
2022/03/12 03:38:23;;;;;;;15.07;8.20;;;6.00;39.20;;;6.46;36.38;97765.19;6255363;23;20018;-38
2022/03/12 03:40:52;;;;;;;27.67;8.77;;;6.00;39.30;;;6.46;35.63;97763.38;6254408;23;20016;-38
2022/03/12 03:43:23;;;;;;;15.00;9.33;;;6.00;39.20;;;6.46;36.52;97766.03;6254333;23;20022;-38
2022/03/12 03:45:56;;;;;;;12.87;9.00;;;6.00;39.40;;;6.45;36.34;97766.16;6265182;23;20022;-38
2022/03/12 03:48:36;;;;;;;10.83;7.77;;;6.00;39.70;;;6.42;36.27;97777.03;6265127;23;20214;-38
2022/03/12 03:51:04;;;;;;;15.93;8.90;;;5.90;39.90;;;6.40;36.29;97771.03;6264708;23;20048;-38
2022/03/12 03:53:32;;;;;;;15.07;9.70;;;5.90;40.00;;;6.38;36.65;97779.09;6254788;23;20038;-38
2022/03/12 03:56:01;;;;;;;13.10;8.47;;;5.80;40.10;;;6.36;37.23;97775.72;6254136;23;20016;-38
2022/03/12 03:58:30;;;;;;;15.40;9.53;;;5.80;40.20;;;6.34;36.41;97776.81;6253419;23;20020;-38
2022/03/12 04:01:12;;;;;;;14.13;9.37;;;5.80;40.30;;;6.32;36.57;97779.63;6254239;23;20307;-38
2022/03/12 04:03:44;;;;;;;18.17;10.67;;;5.70;40.80;;;6.28;36.43;97780.81;6265006;23;20012;-38
2022/03/12 04:06:12;;;;;;;15.80;9.87;;;5.70;40.40;;;6.25;37.54;97781.09;6265033;23;20365;-38
2022/03/12 04:08:42;;;;;;;17.30;10.50;;;5.70;40.70;;;6.24;37.15;97780.25;6254135;23;20016;-38
2022/03/12 04:11:24;;;;;;;13.13;9.53;;;5.70;40.70;;;6.21;36.80;97779.69;6254384;23;20016;-39
2022/03/12 04:13:56;;;;;;;13.17;8.53;;;5.70;41.10;;;6.18;36.62;97775.47;6254587;23;20020;-38
2022/03/12 04:16:24;;;;;;;19.37;11.53;;;5.70;40.50;;;6.15;37.09;97772.28;6229225;23;20016;-38
2022/03/12 04:18:54;;;;;;;17.83;10.03;;;5.60;40.60;;;6.13;37.17;97776.84;6254755;23;20171;-38
2022/03/12 04:21:22;;;;;;;19.10;9.73;;;5.60;40.90;;;6.08;36.84;97779.88;6254581;23;20026;-38
2022/03/12 04:23:51;;;;;;;16.80;9.97;;;5.50;40.90;;;6.04;37.24;97784.56;6253747;23;20016;-38
2022/03/12 04:26:19;;;;;;;16.20;9.00;;;5.50;41.30;;;6.03;37.61;97784.69;6254824;23;20023;-38
2022/03/12 04:28:47;;;;;;;13.03;9.67;;;5.40;41.20;;;6.00;36.70;97784.97;6254714;23;20022;-39
2022/03/12 04:31:14;;;;;;;14.47;9.97;;;5.40;41.30;;;5.97;37.30;97786.09;6254311;23;20068;-38
2022/03/12 04:33:42;;;;;;;15.30;8.80;;;5.40;41.20;;;5.97;36.83;97793.16;6228269;23;20314;-38
2022/03/12 04:36:13;;;;;;;15.23;10.73;;;5.40;41.20;;;5.96;37.13;97794.13;6253334;23;20016;-39
2022/03/12 04:38:41;;;;;;;16.27;10.40;;;5.40;41.00;;;5.94;36.97;97799.50;6253639;23;20047;-38
2022/03/12 04:41:11;;;;;;;18.63;11.00;;;5.50;40.70;;;5.95;37.49;97792.41;6227826;23;20277;-38
2022/03/12 04:43:40;;;;;;;20.27;12.50;;;5.50;40.90;;;5.94;37.72;97796.03;6203425;23;20016;-38
2022/03/12 04:46:08;;;;;;;19.57;10.23;;;5.40;41.20;;;5.91;37.30;97791.81;6254300;23;20020;-39
2022/03/12 04:48:36;;;;;;;17.80;10.10;;;5.40;41.30;;;5.91;37.41;97786.53;6251513;23;20022;-38
2022/03/12 04:51:04;;;;;;;13.67;9.00;;;5.40;41.10;;;5.89;37.32;97793.75;6254094;23;20016;-38
2022/03/12 04:53:32;;;;;;;14.83;9.70;;;5.40;41.40;;;5.87;37.12;97796.56;6254495;23;20016;-38
2022/03/12 04:56:00;;;;;;;15.67;9.60;;;5.30;41.50;;;5.84;37.09;97804.72;6253832;23;20016;-38
2022/03/12 04:58:28;;;;;;;14.70;9.73;;;5.30;41.60;;;5.84;37.63;97809.19;6254476;23;20018;-38
2022/03/12 05:00:55;;;;;;;16.63;9.07;;;5.30;41.70;;;5.83;37.78;97813.59;6226392;23;20016;-38
2022/03/12 05:03:24;;;;;;;17.20;11.90;;;5.30;41.70;;;5.84;38.10;97811.81;6253862;23;20016;-39
2022/03/12 05:05:54;;;;;;;19.83;11.93;;;5.40;41.30;;;5.86;37.53;97823.09;6254493;23;20016;-38
2022/03/12 05:08:25;;;;;;;15.63;9.87;;;5.40;41.50;;;5.87;38.09;97836.19;6255414;23;20016;-39
2022/03/12 05:10:56;;;;;;;13.57;8.63;;;5.40;41.40;;;5.87;37.42;97838.84;6267438;23;20330;-38
2022/03/12 05:13:27;;;;;;;16.25;9.07;;;5.40;41.10;;;5.88;37.75;97842.31;6230950;23;20020;-38
2022/03/12 05:16:02;;;;;;;17.07;9.00;;;5.40;41.10;;;5.88;38.08;97837.84;6256763;23;20023;-39
2022/03/12 05:18:31;;;;;;;15.33;8.07;;;5.40;41.20;;;5.88;37.99;97843.13;6257367;23;20365;-38
2022/03/12 05:21:01;;;;;;;12.37;8.23;;;5.40;41.30;;;5.88;37.55;97852.88;6256810;23;20336;-38
2022/03/12 05:23:33;;;;;;;14.03;8.60;;;5.40;41.30;;;5.90;37.60;97843.00;6267901;23;20019;-38
2022/03/12 05:26:01;;;;;;;14.13;8.43;;;5.40;41.00;;;5.92;37.19;97846.38;6257680;23;20217;-38
2022/03/12 05:28:32;;;;;;;14.73;9.27;;;5.40;41.00;;;5.92;36.84;97849.84;6256491;23;20023;-38
2022/03/12 05:31:04;;;;;;;12.27;7.67;;;5.50;40.90;;;5.92;36.89;97860.41;6256163;23;20322;-38
2022/03/12 05:33:35;;;;;;;16.07;8.07;;;5.40;40.60;;;5.89;37.29;97865.97;6267828;23;20016;-38
2022/03/12 05:36:04;;;;;;;10.43;8.63;;;5.40;40.80;;;5.90;37.90;97870.28;6231038;23;20163;-38
2022/03/12 05:38:34;;;;;;;16.70;11.10;;;5.50;41.00;;;5.90;37.03;97869.44;6257345;23;20016;-38
2022/03/12 05:41:11;;;;;;;14.37;8.67;;;5.40;40.60;;;5.88;36.69;97869.56;6256976;23;20066;-38
2022/03/12 05:43:46;;;;;;;14.07;8.80;;;5.40;40.60;;;5.86;37.21;97868.84;6267888;23;20011;-38
2022/03/12 05:46:17;;;;;;;20.87;12.40;;;5.30;41.00;;;5.83;37.58;97868.25;6257047;23;20020;-38
2022/03/12 05:48:48;;;;;;;18.07;10.83;;;5.30;41.20;;;5.80;37.10;97868.53;6257527;23;20026;-38
2022/03/12 05:51:16;;;;;;;15.20;9.70;;;5.30;41.20;;;5.78;38.22;97870.44;6256660;23;20258;-38
2022/03/12 05:53:49;;;;;;;17.27;10.60;;;5.20;41.60;;;5.72;38.18;97869.97;6230213;23;20026;-38
2022/03/12 05:56:17;;;;;;;14.80;10.40;;;5.20;41.60;;;5.67;38.01;97866.03;6267580;23;20016;-39
2022/03/12 05:58:45;;;;;;;14.50;9.83;;;5.10;41.80;;;5.62;37.82;97874.34;6257315;23;20365;-38
2022/03/12 06:01:13;;;;;;;13.13;8.60;;;5.00;41.80;;;5.57;38.26;97870.41;6256195;23;20023;-38
2022/03/12 06:03:41;;;;;;;15.70;10.23;;;5.00;42.10;;;5.51;37.48;97872.56;6256723;23;20016;-38
2022/03/12 06:06:09;;;;;;;12.53;9.03;;;4.90;42.10;;;5.46;37.64;97874.72;6256817;23;20058;-39
2022/03/12 06:08:39;;;;;;;19.07;12.83;;;4.90;42.10;;;5.43;38.46;97877.63;6257511;23;20016;-38
2022/03/12 06:11:07;;;;;;;22.03;14.83;;;4.90;42.10;;;5.40;38.04;97885.78;6256185;23;20083;-38
2022/03/12 06:13:35;;;;;;;21.37;13.23;;;4.80;42.30;;;5.40;38.15;97884.94;6257708;23;20024;-38
2022/03/12 06:16:04;;;;;;;25.00;15.10;;;4.80;42.60;;;5.41;38.85;97895.41;6257071;23;20016;-39
2022/03/12 06:18:35;;;;;;;29.40;17.30;;;4.80;42.60;;;5.41;38.26;97895.41;6267665;23;20012;-38
2022/03/12 06:21:06;;;;;;;19.53;13.20;;;4.80;42.80;;;5.42;38.32;97893.59;6265784;23;20067;-39
2022/03/12 06:23:35;;;;;;;18.20;11.63;;;4.80;42.70;;;5.39;38.09;97892.03;6265992;23;20380;-39
2022/03/12 06:26:05;;;;;;;19.43;11.53;;;4.80;42.60;;;5.37;37.90;97895.75;6255634;23;20015;-39
2022/03/12 06:28:37;;;;;;;19.97;11.80;;;4.80;42.30;;;5.36;38.13;97899.38;6255050;23;20020;-39
2022/03/12 06:31:05;;;;;;;21.13;12.97;;;4.80;42.50;;;5.32;37.90;97889.03;6255355;23;20023;-39
2022/03/12 06:33:34;;;;;;;14.10;10.70;;;4.80;42.50;;;5.31;38.19;97891.78;6256353;23;20083;-39
2022/03/12 06:36:02;;;;;;;14.07;9.63;;;4.80;42.60;;;5.31;38.31;97891.78;6255544;23;20011;-39
2022/03/12 06:38:31;;;;;;;13.63;8.87;;;4.80;42.80;;;5.29;38.55;97894.56;6255532;23;20012;-39
2022/03/12 06:40:59;;;;;;;12.10;8.27;;;4.80;42.70;;;5.30;38.27;97898.88;6254640;23;20622;-39
2022/03/12 06:43:31;;;;;;;13.47;8.20;;;4.80;42.70;;;5.32;37.86;97904.88;6255775;23;20012;-39
2022/03/12 06:46:01;;;;;;;13.40;8.33;;;4.80;42.40;;;5.35;38.17;97908.22;6265479;23;20015;-39
2022/03/12 06:48:32;;;;;;;14.83;8.27;;;4.90;42.00;;;5.38;38.14;97906.19;6265722;23;20022;-39
2022/03/12 06:51:00;;;;;;;11.80;7.57;;;4.90;42.20;;;5.37;37.95;97914.22;6253733;23;20083;-39
2022/03/12 06:53:28;;;;;;;14.40;9.03;;;4.90;42.30;;;5.38;38.68;97921.19;6228476;23;20027;-39
2022/03/12 06:55:56;;;;;;;14.67;7.93;;;4.90;42.10;;;5.40;38.23;97914.81;6228068;23;20016;-39
2022/03/12 06:58:25;;;;;;;14.93;7.97;;;4.90;42.10;;;5.43;38.26;97916.38;6255138;23;20012;-39
2022/03/12 07:00:54;;;;;;;13.60;8.53;;;4.90;42.10;;;5.44;38.79;97912.78;6254880;23;20071;-39
2022/03/12 07:03:23;;;;;;;12.93;9.70;;;5.00;41.80;;;5.47;38.50;97915.19;6254637;23;20018;-39
2022/03/12 07:05:52;;;;;;;15.17;8.33;;;5.00;42.00;;;5.46;38.36;97914.34;6254239;23;20020;-39
2022/03/12 07:08:20;;;;;;;17.13;7.87;;;5.00;42.20;;;5.48;38.42;97915.03;6255204;23;20063;-39
2022/03/12 07:10:49;;;;;;;12.17;7.63;;;5.00;41.70;;;5.51;38.33;97924.53;6255188;23;20023;-39
2022/03/12 07:13:17;;;;;;;11.60;8.03;;;5.00;42.20;;;5.53;38.81;97919.97;6254970;23;20016;-39
2022/03/12 07:15:45;;;;;;;11.97;8.10;;;5.10;42.10;;;5.55;37.94;97919.88;6253994;23;20012;-39
2022/03/12 07:18:13;;;;;;;14.27;8.03;;;5.10;42.00;;;5.58;39.05;97912.50;6255176;23;20018;-40
2022/03/12 07:20:42;;;;;;;14.37;8.47;;;5.20;42.30;;;5.62;38.65;97915.75;6255045;23;20066;-39
2022/03/12 07:23:10;;;;;;;11.87;6.97;;;5.20;42.10;;;5.63;39.07;97904.22;6253642;23;20075;-40
2022/03/12 07:25:39;;;;;;;11.03;8.17;;;5.20;42.20;;;5.64;38.63;97896.19;6255228;23;20012;-39
2022/03/12 07:28:11;;;;;;;13.33;7.77;;;5.20;42.30;;;5.66;38.63;97904.81;6254949;23;20012;-40
2022/03/12 07:30:38;;;;;;;12.17;8.07;;;5.30;43.10;;;5.68;38.69;97904.69;6255035;23;20012;-39
2022/03/12 07:33:06;;;;;;;16.37;8.20;;;5.30;43.30;;;5.72;38.52;97911.41;6254427;23;20012;-39
2022/03/12 07:35:35;;;;;;;17.63;8.57;;;5.40;43.00;;;5.75;38.82;97908.50;6254686;23;20013;-39
2022/03/12 07:38:04;;;;;;;11.97;8.17;;;5.40;43.10;;;5.78;38.70;97915.34;6254293;23;20020;-40
2022/03/12 07:40:33;;;;;;;14.27;8.00;;;5.40;43.30;;;5.81;38.65;97910.66;6227138;23;20232;-40
2022/03/12 07:43:01;;;;;;;13.40;8.67;;;5.50;42.90;;;5.83;38.43;97905.25;6254566;23;20030;-40
2022/03/12 07:45:29;;;;;;;13.23;8.67;;;5.50;42.50;;;5.86;38.26;97912.94;6254897;23;20016;-39
2022/03/12 07:47:56;;;;;;;13.70;9.03;;;5.50;42.40;;;5.89;39.33;97918.81;6251685;23;20272;-40
2022/03/12 07:50:26;;;;;;;12.50;8.07;;;5.50;42.20;;;5.93;38.94;97916.75;6253557;23;20012;-40
2022/03/12 07:52:54;;;;;;;13.33;9.03;;;5.60;42.10;;;5.95;39.02;97919.25;6254394;23;20022;-40
2022/03/12 07:55:23;;;;;;;16.97;8.37;;;5.60;42.20;;;5.96;39.31;97919.16;6254728;23;20020;-40
2022/03/12 07:57:51;;;;;;;15.23;8.80;;;5.60;42.40;;;5.98;38.68;97914.59;6254358;23;20341;-40
2022/03/12 08:00:19;;;;;;;18.27;8.27;;;5.60;42.50;;;6.01;39.18;97910.84;6254770;23;20012;-40
2022/03/12 08:02:48;;;;;;;14.67;8.80;;;5.70;42.40;;;6.07;38.72;97923.59;6253798;23;20012;-40
2022/03/12 08:05:19;;;;;;;13.37;8.83;;;5.80;42.30;;;6.07;39.33;97916.50;6254583;23;20018;-40
2022/03/12 08:07:47;;;;;;;18.10;9.10;;;5.80;42.10;;;6.13;38.84;97922.22;6264523;23;20306;-39
2022/03/12 08:10:15;;;;;;;14.53;8.47;;;5.80;41.80;;;6.18;38.56;97920.03;6254810;23;20016;-39
2022/03/12 08:12:44;;;;;;;14.70;10.00;;;5.90;41.80;;;6.24;38.86;97916.88;6254118;23;20016;-39
2022/03/12 08:15:14;;;;;;;11.83;8.50;;;6.00;41.80;;;6.31;39.06;97918.06;6228738;23;20022;-39
2022/03/12 08:17:44;;;;;;;15.30;8.63;;;6.10;41.80;;;6.38;38.95;97916.59;6228040;23;20026;-39
2022/03/12 08:20:12;;;;;;;15.40;9.30;;;6.20;41.80;;;6.46;38.34;97916.78;6254335;23;20012;-39
2022/03/12 08:22:44;;;;;;;15.67;9.13;;;6.30;41.50;;;6.49;38.62;97916.53;6252518;23;20366;-39
2022/03/12 08:25:15;;;;;;;14.43;9.33;;;6.40;41.00;;;6.55;38.67;97915.16;6264759;23;20012;-39
2022/03/12 08:27:43;;;;;;;21.67;10.13;;;6.40;41.10;;;6.61;38.67;97916.47;6264672;23;20214;-40
2022/03/12 08:30:12;;;;;;;14.93;8.57;;;6.50;41.00;;;6.66;38.17;97919.56;6253199;23;20293;-40
2022/03/12 08:32:41;;;;;;;12.03;7.80;;;6.50;41.00;;;6.75;38.08;97917.97;6253975;23;20063;-39
2022/03/12 08:35:11;;;;;;;14.27;9.03;;;6.60;40.70;;;6.82;38.27;97919.91;6253139;23;20026;-40
2022/03/12 08:37:39;;;;;;;14.80;9.03;;;6.70;40.80;;;6.89;38.10;97914.97;6254561;23;20016;-39
2022/03/12 08:40:10;;;;;;;15.13;9.13;;;6.80;40.70;;;6.95;38.14;97919.72;6254304;23;20018;-39
2022/03/12 08:42:38;;;;;;;21.87;10.30;;;6.80;40.60;;;7.01;38.36;97921.00;6253745;23;20061;-40
2022/03/12 08:45:11;;;;;;;13.20;8.60;;;6.90;40.50;;;7.06;37.90;97922.28;6252729;23;20016;-39
2022/03/12 08:47:41;;;;;;;14.90;8.67;;;6.90;40.20;;;7.12;38.34;97928.03;6252617;23;20020;-39
2022/03/12 08:50:10;;;;;;;13.70;8.40;;;7.00;40.10;;;7.16;37.55;97927.63;6254018;23;20231;-40
2022/03/12 08:52:38;;;;;;;16.77;9.50;;;7.00;40.10;;;7.23;38.30;97925.28;6253573;23;20038;-40
2022/03/12 08:55:07;;;;;;;14.53;9.00;;;7.10;40.20;;;7.27;37.41;97924.91;6253970;23;20016;-39
2022/03/12 08:57:36;;;;;;;13.83;9.33;;;7.10;40.00;;;7.33;37.31;97927.97;6254059;23;20306;-40
2022/03/12 09:00:08;;;;;;;17.60;10.17;;;7.20;40.10;;;7.39;38.11;97928.28;6251583;23;20027;-39
2022/03/12 09:02:38;;;;;;;13.23;9.63;;;7.30;39.70;;;7.43;37.38;97929.69;6263687;23;20019;-39
2022/03/12 09:05:10;;;;;;;15.67;10.13;;;7.30;39.80;;;7.49;37.20;97931.78;6252638;23;20030;-39
2022/03/12 09:07:40;;;;;;;21.63;9.33;;;7.40;39.80;;;7.56;37.58;97933.88;6252936;23;20209;-39
2022/03/12 09:10:11;;;;;;;12.33;9.90;;;7.40;39.60;;;7.61;37.42;97937.81;6252875;23;20332;-39
2022/03/12 09:12:41;;;;;;;14.27;9.30;;;7.50;39.60;;;7.64;37.74;97932.25;6251980;23;20020;-39
2022/03/12 09:15:10;;;;;;;16.17;10.00;;;7.60;39.40;;;7.67;37.01;97937.28;6253125;23;20016;-39
2022/03/12 09:17:38;;;;;;;16.47;10.30;;;7.60;39.00;;;7.76;37.68;97934.81;6253205;23;20018;-39
2022/03/12 09:20:08;;;;;;;14.60;9.97;;;7.70;39.40;;;7.80;37.39;97931.72;6252850;23;20019;-39
2022/03/12 09:22:36;;;;;;;14.27;10.50;;;7.70;39.40;;;7.85;37.39;97939.25;6253230;23;20018;-39
2022/03/12 09:25:07;;;;;;;14.53;10.57;;;7.70;39.30;;;7.90;37.71;97937.03;6227849;23;20046;-40
2022/03/12 09:27:36;;;;;;;14.70;9.20;;;7.80;39.20;;;7.96;37.21;97939.13;6253938;23;20038;-39
2022/03/12 09:30:05;;;;;;;13.97;9.97;;;7.90;39.10;;;8.01;37.44;97936.94;6254252;23;20183;-40
2022/03/12 09:32:34;;;;;;;15.27;9.43;;;8.00;39.10;;;8.07;37.48;97936.38;6227254;23;20026;-39
2022/03/12 09:35:02;;;;;;;16.23;9.17;;;8.00;39.10;;;8.13;36.88;97934.16;6254363;23;20016;-39
2022/03/12 09:37:30;;;;;;;14.63;8.53;;;8.00;39.00;;;8.17;37.15;97936.38;6253770;23;20020;-39
2022/03/12 09:40:00;;;;;;;13.87;9.23;;;8.10;39.00;;;8.22;37.14;97935.94;6254048;23;20213;-39
2022/03/12 09:42:30;;;;;;;13.53;9.57;;;8.20;39.00;;;8.28;37.13;97935.41;6253353;23;20348;-39
2022/03/12 09:44:59;;;;;;;15.70;9.97;;;8.20;38.80;;;8.33;36.96;97933.16;6253867;23;20117;-39
2022/03/12 09:47:27;;;;;;;15.80;10.20;;;8.20;38.60;;;8.35;37.03;97933.03;6254061;23;20214;-39
2022/03/12 09:49:55;;;;;;;14.23;10.47;;;8.30;38.60;;;8.41;36.99;97928.06;6253464;23;20079;-39
2022/03/12 09:52:23;;;;;;;14.70;10.07;;;8.30;38.70;;;8.46;36.79;97932.91;6253642;23;20064;-39
2022/03/12 09:54:51;;;;;;;16.00;9.77;;;8.40;38.60;;;8.50;36.40;97936.97;6253520;23;20042;-40
2022/03/12 09:57:21;;;;;;;19.20;11.97;;;8.50;38.40;;;8.57;36.66;97923.94;6254562;23;20015;-39
2022/03/12 09:59:49;;;;;;;18.43;12.03;;;8.50;38.40;;;8.62;36.54;97921.72;6255831;23;20071;-39
2022/03/12 10:02:16;;;;;;;16.33;10.47;;;8.50;38.30;;;8.67;36.58;97924.81;6255363;23;20063;-39
2022/03/12 10:04:45;;;;;;;19.30;11.57;;;8.60;38.30;;;8.73;36.64;97929.53;6254423;23;20016;-40
2022/03/12 10:07:13;;;;;;;16.43;10.43;;;8.70;38.10;;;8.78;36.48;97922.00;6255282;23;20072;-39
2022/03/12 10:09:41;;;;;;;18.37;12.93;;;8.80;38.10;;;8.84;36.18;97925.84;6256140;23;20079;-39
2022/03/12 10:12:10;;;;;;;14.40;10.43;;;8.80;38.10;;;8.90;36.13;97922.66;6254736;23;20030;-39
2022/03/12 10:14:37;;;;;;;17.20;10.50;;;8.90;37.90;;;8.96;36.59;97926.56;6229262;23;20016;-40
2022/03/12 10:17:05;;;;;;;18.97;10.80;;;8.90;38.10;;;9.01;36.34;97926.94;6265754;23;20260;-39
2022/03/12 10:19:37;;;;;;;20.20;11.37;;;9.00;38.10;;;9.07;35.97;97918.38;6254328;23;20075;-40
2022/03/12 10:22:08;;;;;;;16.73;11.67;;;9.10;37.90;;;9.12;36.05;97916.16;6265180;23;20018;-39
2022/03/12 10:24:36;;;;;;;18.17;11.47;;;9.20;37.90;;;9.15;35.91;97918.53;6266213;23;20019;-40
2022/03/12 10:27:07;;;;;;;15.97;10.77;;;9.20;37.60;;;9.25;36.31;97915.84;6229459;23;20012;-40
2022/03/12 10:29:36;;;;;;;15.50;10.73;;;9.30;37.90;;;9.32;35.85;97918.72;6240144;23;20011;-40
2022/03/12 10:32:24;;;;;;;18.43;11.67;;;9.40;37.80;;;9.39;36.01;97914.50;6255401;23;20012;-39
2022/03/12 10:34:56;;;;;;;14.17;10.70;;;9.40;37.10;;;9.41;36.07;97913.38;6265631;23;20016;-40
2022/03/12 10:37:27;;;;;;;17.97;11.17;;;9.50;37.70;;;9.44;35.75;97902.47;6265817;23;20016;-39